sensor_id;sensor_type;location;lat;lon;timestamp;temperature;humidity
47861;HTU21D;33620;52.340;5.984;2023-05-07T00:00:52;15.84;90.14
47861;HTU21D;33620;52.340;5.984;2023-05-07T00:03:17;15.85;90.34
47861;HTU21D;33620;52.340;5.984;2023-05-07T00:05:44;15.88;90.31
47861;HTU21D;33620;52.340;5.984;2023-05-07T00:08:09;15.88;90.14
47861;HTU21D;33620;52.340;5.984;2023-05-07T00:10:34;15.86;90.01
47861;HTU21D;33620;52.340;5.984;2023-05-07T00:13:00;15.86;90.02
47861;HTU21D;33620;52.340;5.984;2023-05-07T00:15:25;15.86;90.03
47861;HTU21D;33620;52.340;5.984;2023-05-07T00:17:50;15.85;90.10
47861;HTU21D;33620;52.340;5.984;2023-05-07T00:20:17;15.85;90.08
47861;HTU21D;33620;52.340;5.984;2023-05-07T00:22:43;15.85;90.08
47861;HTU21D;33620;52.340;5.984;2023-05-07T00:25:08;15.84;90.10
47861;HTU21D;33620;52.340;5.984;2023-05-07T00:27:33;15.83;90.18
47861;HTU21D;33620;52.340;5.984;2023-05-07T00:29:59;15.82;90.36
47861;HTU21D;33620;52.340;5.984;2023-05-07T00:32:24;15.82;90.47
47861;HTU21D;33620;52.340;5.984;2023-05-07T00:34:49;15.81;90.44
47861;HTU21D;33620;52.340;5.984;2023-05-07T00:37:16;15.78;90.56
47861;HTU21D;33620;52.340;5.984;2023-05-07T00:39:41;15.76;90.60
47861;HTU21D;33620;52.340;5.984;2023-05-07T00:42:06;15.74;90.67
47861;HTU21D;33620;52.340;5.984;2023-05-07T00:44:33;15.73;90.73
47861;HTU21D;33620;52.340;5.984;2023-05-07T00:46:58;15.72;90.79
47861;HTU21D;33620;52.340;5.984;2023-05-07T00:49:27;15.72;91.01
47861;HTU21D;33620;52.340;5.984;2023-05-07T00:51:56;15.72;90.95
47861;HTU21D;33620;52.340;5.984;2023-05-07T00:54:21;15.73;91.05
47861;HTU21D;33620;52.340;5.984;2023-05-07T00:56:46;15.75;91.03
47861;HTU21D;33620;52.340;5.984;2023-05-07T00:59:12;15.74;91.08
47861;HTU21D;33620;52.340;5.984;2023-05-07T01:01:38;15.76;91.11
47861;HTU21D;33620;52.340;5.984;2023-05-07T01:04:03;15.76;91.04
47861;HTU21D;33620;52.340;5.984;2023-05-07T01:06:28;15.78;91.07
47861;HTU21D;33620;52.340;5.984;2023-05-07T01:08:54;15.80;90.98
47861;HTU21D;33620;52.340;5.984;2023-05-07T01:11:21;15.80;90.84
47861;HTU21D;33620;52.340;5.984;2023-05-07T01:13:47;15.76;90.75
47861;HTU21D;33620;52.340;5.984;2023-05-07T01:16:12;15.78;90.82
47861;HTU21D;33620;52.340;5.984;2023-05-07T01:18:38;15.77;90.92
47861;HTU21D;33620;52.340;5.984;2023-05-07T01:21:03;15.76;90.83
47861;HTU21D;33620;52.340;5.984;2023-05-07T01:23:29;15.74;90.89
47861;HTU21D;33620;52.340;5.984;2023-05-07T01:25:55;15.75;90.92
47861;HTU21D;33620;52.340;5.984;2023-05-07T01:28:20;15.73;90.95
47861;HTU21D;33620;52.340;5.984;2023-05-07T01:30:47;15.72;91.02
47861;HTU21D;33620;52.340;5.984;2023-05-07T01:33:13;15.74;91.06
47861;HTU21D;33620;52.340;5.984;2023-05-07T01:35:40;15.75;91.01
47861;HTU21D;33620;52.340;5.984;2023-05-07T01:38:06;15.75;90.89
47861;HTU21D;33620;52.340;5.984;2023-05-07T01:40:33;15.77;90.73
47861;HTU21D;33620;52.340;5.984;2023-05-07T01:42:59;15.76;90.62
47861;HTU21D;33620;52.340;5.984;2023-05-07T01:45:25;15.73;90.65
47861;HTU21D;33620;52.340;5.984;2023-05-07T01:47:50;15.74;90.83
47861;HTU21D;33620;52.340;5.984;2023-05-07T01:50:16;15.73;90.73
47861;HTU21D;33620;52.340;5.984;2023-05-07T01:52:43;15.72;90.69
47861;HTU21D;33620;52.340;5.984;2023-05-07T01:55:09;15.72;90.72
47861;HTU21D;33620;52.340;5.984;2023-05-07T01:57:34;15.71;90.60
47861;HTU21D;33620;52.340;5.984;2023-05-07T01:59:59;15.71;90.54
47861;HTU21D;33620;52.340;5.984;2023-05-07T02:02:25;15.72;90.47
47861;HTU21D;33620;52.340;5.984;2023-05-07T02:04:50;15.69;90.36
47861;HTU21D;33620;52.340;5.984;2023-05-07T02:07:15;15.67;90.56
47861;HTU21D;33620;52.340;5.984;2023-05-07T02:09:40;15.63;90.60
47861;HTU21D;33620;52.340;5.984;2023-05-07T02:12:06;15.62;90.62
47861;HTU21D;33620;52.340;5.984;2023-05-07T02:14:31;15.59;90.75
47861;HTU21D;33620;52.340;5.984;2023-05-07T02:16:56;15.57;90.83
47861;HTU21D;33620;52.340;5.984;2023-05-07T02:19:22;15.55;90.85
47861;HTU21D;33620;52.340;5.984;2023-05-07T02:21:47;15.52;91.08
47861;HTU21D;33620;52.340;5.984;2023-05-07T02:24:12;15.51;90.98
47861;HTU21D;33620;52.340;5.984;2023-05-07T02:26:39;15.48;91.07
47861;HTU21D;33620;52.340;5.984;2023-05-07T02:29:04;15.44;91.14
47861;HTU21D;33620;52.340;5.984;2023-05-07T02:31:29;15.42;91.31
47861;HTU21D;33620;52.340;5.984;2023-05-07T02:33:54;15.41;91.34
47861;HTU21D;33620;52.340;5.984;2023-05-07T02:36:20;15.40;91.43
47861;HTU21D;33620;52.340;5.984;2023-05-07T02:38:45;15.38;91.56
47861;HTU21D;33620;52.340;5.984;2023-05-07T02:41:10;15.37;91.53
47861;HTU21D;33620;52.340;5.984;2023-05-07T02:43:36;15.37;91.66
47861;HTU21D;33620;52.340;5.984;2023-05-07T02:46:07;15.33;91.82
47861;HTU21D;33620;52.340;5.984;2023-05-07T02:48:33;15.33;91.82
47861;HTU21D;33620;52.340;5.984;2023-05-07T02:50:59;15.32;91.81
47861;HTU21D;33620;52.340;5.984;2023-05-07T02:53:24;15.32;91.89
47861;HTU21D;33620;52.340;5.984;2023-05-07T02:55:53;15.30;91.92
47861;HTU21D;33620;52.340;5.984;2023-05-07T02:58:18;15.30;91.93
47861;HTU21D;33620;52.340;5.984;2023-05-07T03:00:43;15.29;91.92
47861;HTU21D;33620;52.340;5.984;2023-05-07T03:03:09;15.28;91.92
47861;HTU21D;33620;52.340;5.984;2023-05-07T03:05:34;15.29;91.79
47861;HTU21D;33620;52.340;5.984;2023-05-07T03:07:59;15.26;91.79
47861;HTU21D;33620;52.340;5.984;2023-05-07T03:10:24;15.26;91.67
47861;HTU21D;33620;52.340;5.984;2023-05-07T03:12:50;15.23;91.73
47861;HTU21D;33620;52.340;5.984;2023-05-07T03:15:15;15.24;91.75
47861;HTU21D;33620;52.340;5.984;2023-05-07T03:17:40;15.24;91.74
47861;HTU21D;33620;52.340;5.984;2023-05-07T03:20:06;15.22;91.67
47861;HTU21D;33620;52.340;5.984;2023-05-07T03:22:32;15.22;91.70
47861;HTU21D;33620;52.340;5.984;2023-05-07T03:24:57;15.21;91.63
47861;HTU21D;33620;52.340;5.984;2023-05-07T03:27:22;15.19;91.66
47861;HTU21D;33620;52.340;5.984;2023-05-07T03:29:48;15.19;91.73
47861;HTU21D;33620;52.340;5.984;2023-05-07T03:32:13;15.21;91.63
47861;HTU21D;33620;52.340;5.984;2023-05-07T03:34:38;15.21;91.73
47861;HTU21D;33620;52.340;5.984;2023-05-07T03:37:03;15.21;91.60
47861;HTU21D;33620;52.340;5.984;2023-05-07T03:39:29;15.17;91.53
47861;HTU21D;33620;52.340;5.984;2023-05-07T03:41:55;15.16;91.54
47861;HTU21D;33620;52.340;5.984;2023-05-07T03:44:20;15.15;91.70
47861;HTU21D;33620;52.340;5.984;2023-05-07T03:46:45;15.14;91.63
47861;HTU21D;33620;52.340;5.984;2023-05-07T03:49:10;15.12;91.59
47861;HTU21D;33620;52.340;5.984;2023-05-07T03:51:36;15.12;91.62
47861;HTU21D;33620;52.340;5.984;2023-05-07T03:54:01;15.10;91.53
47861;HTU21D;33620;52.340;5.984;2023-05-07T03:56:27;15.08;91.70
47861;HTU21D;33620;52.340;5.984;2023-05-07T03:58:53;15.07;91.66
47861;HTU21D;33620;52.340;5.984;2023-05-07T04:01:18;15.03;91.66
47861;HTU21D;33620;52.340;5.984;2023-05-07T04:03:43;15.01;91.76
47861;HTU21D;33620;52.340;5.984;2023-05-07T04:06:08;15.00;91.79
47861;HTU21D;33620;52.340;5.984;2023-05-07T04:08:34;14.97;91.70
47861;HTU21D;33620;52.340;5.984;2023-05-07T04:10:59;14.94;91.83
47861;HTU21D;33620;52.340;5.984;2023-05-07T04:13:24;14.94;91.87
47861;HTU21D;33620;52.340;5.984;2023-05-07T04:15:51;14.91;91.80
47861;HTU21D;33620;52.340;5.984;2023-05-07T04:18:16;14.88;91.88
47861;HTU21D;33620;52.340;5.984;2023-05-07T04:20:41;14.89;92.01
47861;HTU21D;33620;52.340;5.984;2023-05-07T04:23:07;14.89;91.96
47861;HTU21D;33620;52.340;5.984;2023-05-07T04:25:32;14.89;91.76
47861;HTU21D;33620;52.340;5.984;2023-05-07T04:27:58;14.88;91.73
47861;HTU21D;33620;52.340;5.984;2023-05-07T04:30:23;14.85;91.75
47861;HTU21D;33620;52.340;5.984;2023-05-07T04:32:49;14.85;91.53
47861;HTU21D;33620;52.340;5.984;2023-05-07T04:35:14;14.83;91.54
47861;HTU21D;33620;52.340;5.984;2023-05-07T04:37:39;14.81;91.47
47861;HTU21D;33620;52.340;5.984;2023-05-07T04:40:05;14.79;91.60
47861;HTU21D;33620;52.340;5.984;2023-05-07T04:42:32;14.80;91.65
47861;HTU21D;33620;52.340;5.984;2023-05-07T04:44:57;14.78;91.59
47861;HTU21D;33620;52.340;5.984;2023-05-07T04:47:23;14.75;91.50
47861;HTU21D;33620;52.340;5.984;2023-05-07T04:49:48;14.75;91.53
47861;HTU21D;33620;52.340;5.984;2023-05-07T04:52:13;14.77;91.52
47861;HTU21D;33620;52.340;5.984;2023-05-07T04:54:39;14.75;91.51
47861;HTU21D;33620;52.340;5.984;2023-05-07T04:57:04;14.77;91.56
47861;HTU21D;33620;52.340;5.984;2023-05-07T04:59:29;14.77;91.59
47861;HTU21D;33620;52.340;5.984;2023-05-07T05:01:55;14.77;91.45
47861;HTU21D;33620;52.340;5.984;2023-05-07T05:04:20;14.75;91.31
47861;HTU21D;33620;52.340;5.984;2023-05-07T05:06:45;14.75;91.32
47861;HTU21D;33620;52.340;5.984;2023-05-07T05:09:11;14.74;91.18
47861;HTU21D;33620;52.340;5.984;2023-05-07T05:11:36;14.73;91.02
47861;HTU21D;33620;52.340;5.984;2023-05-07T05:14:01;14.71;90.82
47861;HTU21D;33620;52.340;5.984;2023-05-07T05:16:27;14.72;91.08
47861;HTU21D;33620;52.340;5.984;2023-05-07T05:18:52;14.71;90.98
47861;HTU21D;33620;52.340;5.984;2023-05-07T05:21:19;14.67;90.74
47861;HTU21D;33620;52.340;5.984;2023-05-07T05:23:44;14.65;90.89
47861;HTU21D;33620;52.340;5.984;2023-05-07T05:26:10;14.64;90.86
47861;HTU21D;33620;52.340;5.984;2023-05-07T05:28:35;14.63;90.75
47861;HTU21D;33620;52.340;5.984;2023-05-07T05:31:03;14.60;90.55
47861;HTU21D;33620;52.340;5.984;2023-05-07T05:33:29;14.52;89.98
47861;HTU21D;33620;52.340;5.984;2023-05-07T05:35:54;14.49;90.05
47861;HTU21D;33620;52.340;5.984;2023-05-07T05:38:19;14.48;90.22
47861;HTU21D;33620;52.340;5.984;2023-05-07T05:40:46;14.45;90.12
47861;HTU21D;33620;52.340;5.984;2023-05-07T05:43:11;14.50;90.47
47861;HTU21D;33620;52.340;5.984;2023-05-07T05:45:36;14.52;90.58
47861;HTU21D;33620;52.340;5.984;2023-05-07T05:48:01;14.52;90.52
47861;HTU21D;33620;52.340;5.984;2023-05-07T05:50:27;14.53;90.53
47861;HTU21D;33620;52.340;5.984;2023-05-07T05:52:52;14.52;90.22
47861;HTU21D;33620;52.340;5.984;2023-05-07T05:55:17;14.49;90.21
47861;HTU21D;33620;52.340;5.984;2023-05-07T05:57:42;14.50;90.30
47861;HTU21D;33620;52.340;5.984;2023-05-07T06:00:08;14.48;90.21
47861;HTU21D;33620;52.340;5.984;2023-05-07T06:02:34;14.49;89.98
47861;HTU21D;33620;52.340;5.984;2023-05-07T06:04:59;14.48;90.13
47861;HTU21D;33620;52.340;5.984;2023-05-07T06:07:24;14.48;90.16
47861;HTU21D;33620;52.340;5.984;2023-05-07T06:09:50;14.45;90.05
47861;HTU21D;33620;52.340;5.984;2023-05-07T06:12:15;14.43;89.99
47861;HTU21D;33620;52.340;5.984;2023-05-07T06:14:42;14.43;89.94
47861;HTU21D;33620;52.340;5.984;2023-05-07T06:17:07;14.43;89.98
47861;HTU21D;33620;52.340;5.984;2023-05-07T06:19:33;14.44;90.22
47861;HTU21D;33620;52.340;5.984;2023-05-07T06:21:58;14.45;90.15
47861;HTU21D;33620;52.340;5.984;2023-05-07T06:24:23;14.45;90.30
47861;HTU21D;33620;52.340;5.984;2023-05-07T06:26:49;14.45;90.16
47861;HTU21D;33620;52.340;5.984;2023-05-07T06:29:14;14.45;90.24
47861;HTU21D;33620;52.340;5.984;2023-05-07T06:31:40;14.48;90.53
47861;HTU21D;33620;52.340;5.984;2023-05-07T06:34:05;14.51;90.57
47861;HTU21D;33620;52.340;5.984;2023-05-07T06:36:30;14.54;90.63
47861;HTU21D;33620;52.340;5.984;2023-05-07T06:38:56;14.56;90.52
47861;HTU21D;33620;52.340;5.984;2023-05-07T06:41:21;14.57;90.33
47861;HTU21D;33620;52.340;5.984;2023-05-07T06:43:46;14.62;90.31
47861;HTU21D;33620;52.340;5.984;2023-05-07T06:46:12;14.62;90.32
47861;HTU21D;33620;52.340;5.984;2023-05-07T06:48:37;14.66;90.48
47861;HTU21D;33620;52.340;5.984;2023-05-07T06:51:02;14.70;90.26
47861;HTU21D;33620;52.340;5.984;2023-05-07T06:53:28;14.70;89.95
47861;HTU21D;33620;52.340;5.984;2023-05-07T06:55:54;14.78;89.95
47861;HTU21D;33620;52.340;5.984;2023-05-07T06:58:19;14.77;89.03
47861;HTU21D;33620;52.340;5.984;2023-05-07T07:00:44;14.78;89.03
47861;HTU21D;33620;52.340;5.984;2023-05-07T07:03:11;14.83;89.41
47861;HTU21D;33620;52.340;5.984;2023-05-07T07:05:36;14.87;89.56
47861;HTU21D;33620;52.340;5.984;2023-05-07T07:08:01;14.89;89.15
47861;HTU21D;33620;52.340;5.984;2023-05-07T07:10:26;14.88;88.81
47861;HTU21D;33620;52.340;5.984;2023-05-07T07:12:52;14.84;88.44
47861;HTU21D;33620;52.340;5.984;2023-05-07T07:15:17;14.87;88.88
47861;HTU21D;33620;52.340;5.984;2023-05-07T07:17:43;14.89;88.54
47861;HTU21D;33620;52.340;5.984;2023-05-07T07:20:08;14.89;88.58
47861;HTU21D;33620;52.340;5.984;2023-05-07T07:22:34;14.88;88.67
47861;HTU21D;33620;52.340;5.984;2023-05-07T07:24:59;14.91;88.62
47861;HTU21D;33620;52.340;5.984;2023-05-07T07:27:25;14.93;88.75
47861;HTU21D;33620;52.340;5.984;2023-05-07T07:29:50;14.96;88.79
47861;HTU21D;33620;52.340;5.984;2023-05-07T07:32:15;15.00;88.62
47861;HTU21D;33620;52.340;5.984;2023-05-07T07:34:40;15.04;88.67
47861;HTU21D;33620;52.340;5.984;2023-05-07T07:37:06;15.08;88.67
47861;HTU21D;33620;52.340;5.984;2023-05-07T07:39:31;15.11;88.60
47861;HTU21D;33620;52.340;5.984;2023-05-07T07:41:57;15.15;88.67
47861;HTU21D;33620;52.340;5.984;2023-05-07T07:44:22;15.18;88.40
47861;HTU21D;33620;52.340;5.984;2023-05-07T07:46:47;15.22;88.35
47861;HTU21D;33620;52.340;5.984;2023-05-07T07:49:13;15.26;88.41
47861;HTU21D;33620;52.340;5.984;2023-05-07T07:51:38;15.26;88.06
47861;HTU21D;33620;52.340;5.984;2023-05-07T07:54:03;15.28;88.02
47861;HTU21D;33620;52.340;5.984;2023-05-07T07:56:29;15.34;88.09
47861;HTU21D;33620;52.340;5.984;2023-05-07T07:58:54;15.38;88.17
47861;HTU21D;33620;52.340;5.984;2023-05-07T08:01:19;15.43;88.41
47861;HTU21D;33620;52.340;5.984;2023-05-07T08:03:45;15.44;88.43
47861;HTU21D;33620;52.340;5.984;2023-05-07T08:06:10;15.46;88.23
47861;HTU21D;33620;52.340;5.984;2023-05-07T08:08:35;15.52;88.37
47861;HTU21D;33620;52.340;5.984;2023-05-07T08:11:01;15.54;87.50
47861;HTU21D;33620;52.340;5.984;2023-05-07T08:13:26;15.49;86.83
47861;HTU21D;33620;52.340;5.984;2023-05-07T08:15:51;15.56;87.25
47861;HTU21D;33620;52.340;5.984;2023-05-07T08:18:17;15.66;87.38
47861;HTU21D;33620;52.340;5.984;2023-05-07T08:20:42;15.80;87.82
47861;HTU21D;33620;52.340;5.984;2023-05-07T08:23:08;15.96;88.07
47861;HTU21D;33620;52.340;5.984;2023-05-07T08:25:33;16.16;87.97
47861;HTU21D;33620;52.340;5.984;2023-05-07T08:27:59;16.36;88.41
47861;HTU21D;33620;52.340;5.984;2023-05-07T08:30:24;16.46;86.25
47861;HTU21D;33620;52.340;5.984;2023-05-07T08:32:49;16.56;85.83
47861;HTU21D;33620;52.340;5.984;2023-05-07T08:35:15;16.61;85.58
47861;HTU21D;33620;52.340;5.984;2023-05-07T08:37:40;16.67;84.39
47861;HTU21D;33620;52.340;5.984;2023-05-07T08:40:05;16.79;85.05
47861;HTU21D;33620;52.340;5.984;2023-05-07T08:42:31;16.79;84.39
47861;HTU21D;33620;52.340;5.984;2023-05-07T08:45:00;16.78;84.03
47861;HTU21D;33620;52.340;5.984;2023-05-07T08:47:29;16.81;84.25
47861;HTU21D;33620;52.340;5.984;2023-05-07T08:49:55;16.79;84.10
47861;HTU21D;33620;52.340;5.984;2023-05-07T08:52:20;16.82;85.04
47861;HTU21D;33620;52.340;5.984;2023-05-07T08:54:46;16.80;84.26
47861;HTU21D;33620;52.340;5.984;2023-05-07T08:57:12;16.81;84.05
47861;HTU21D;33620;52.340;5.984;2023-05-07T08:59:37;16.87;84.98
47861;HTU21D;33620;52.340;5.984;2023-05-07T09:02:03;16.88;84.78
47861;HTU21D;33620;52.340;5.984;2023-05-07T09:04:28;16.90;84.49
47861;HTU21D;33620;52.340;5.984;2023-05-07T09:06:53;16.89;83.90
47861;HTU21D;33620;52.340;5.984;2023-05-07T09:09:18;16.92;84.90
47861;HTU21D;33620;52.340;5.984;2023-05-07T09:11:44;16.95;84.71
47861;HTU21D;33620;52.340;5.984;2023-05-07T09:14:09;17.02;84.34
47861;HTU21D;33620;52.340;5.984;2023-05-07T09:16:34;17.10;84.71
47861;HTU21D;33620;52.340;5.984;2023-05-07T09:19:00;17.11;83.66
47861;HTU21D;33620;52.340;5.984;2023-05-07T09:21:26;17.17;83.94
47861;HTU21D;33620;52.340;5.984;2023-05-07T09:23:52;17.19;83.57
47861;HTU21D;33620;52.340;5.984;2023-05-07T09:26:18;17.23;83.33
47861;HTU21D;33620;52.340;5.984;2023-05-07T09:28:43;17.30;83.00
47861;HTU21D;33620;52.340;5.984;2023-05-07T09:31:09;17.34;82.62
47861;HTU21D;33620;52.340;5.984;2023-05-07T09:33:35;17.38;82.78
47861;HTU21D;33620;52.340;5.984;2023-05-07T09:36:04;17.36;82.42
47861;HTU21D;33620;52.340;5.984;2023-05-07T09:38:30;17.40;82.69
47861;HTU21D;33620;52.340;5.984;2023-05-07T09:41:08;17.41;83.03
47861;HTU21D;33620;52.340;5.984;2023-05-07T09:43:35;17.41;82.86
47861;HTU21D;33620;52.340;5.984;2023-05-07T09:46:23;17.47;83.20
47861;HTU21D;33620;52.340;5.984;2023-05-07T09:48:49;17.59;82.29
47861;HTU21D;33620;52.340;5.984;2023-05-07T09:51:29;17.72;83.22
47861;HTU21D;33620;52.340;5.984;2023-05-07T09:53:56;17.72;81.52
47861;HTU21D;33620;52.340;5.984;2023-05-07T09:56:22;17.76;81.84
47861;HTU21D;33620;52.340;5.984;2023-05-07T09:58:48;17.84;82.47
47861;HTU21D;33620;52.340;5.984;2023-05-07T10:01:15;17.81;81.56
47861;HTU21D;33620;52.340;5.984;2023-05-07T10:03:42;17.83;81.47
47861;HTU21D;33620;52.340;5.984;2023-05-07T10:06:08;17.82;80.60
47861;HTU21D;33620;52.340;5.984;2023-05-07T10:08:34;17.85;80.80
47861;HTU21D;33620;52.340;5.984;2023-05-07T10:11:00;17.82;81.20
47861;HTU21D;33620;52.340;5.984;2023-05-07T10:13:26;17.89;82.75
47861;HTU21D;33620;52.340;5.984;2023-05-07T10:15:51;17.84;81.80
47861;HTU21D;33620;52.340;5.984;2023-05-07T10:18:17;17.84;81.76
47861;HTU21D;33620;52.340;5.984;2023-05-07T10:20:43;17.84;82.05
47861;HTU21D;33620;52.340;5.984;2023-05-07T10:23:10;17.81;81.58
47861;HTU21D;33620;52.340;5.984;2023-05-07T10:25:38;17.76;81.28
47861;HTU21D;33620;52.340;5.984;2023-05-07T10:28:07;17.76;83.13
47861;HTU21D;33620;52.340;5.984;2023-05-07T10:33:03;17.77;83.41
47861;HTU21D;33620;52.340;5.984;2023-05-07T10:35:31;17.81;83.71
47861;HTU21D;33620;52.340;5.984;2023-05-07T10:37:57;17.84;83.53
47861;HTU21D;33620;52.340;5.984;2023-05-07T10:40:23;17.84;82.97
47861;HTU21D;33620;52.340;5.984;2023-05-07T10:45:24;17.90;82.35
47861;HTU21D;33620;52.340;5.984;2023-05-07T10:50:34;18.00;83.26
47861;HTU21D;33620;52.340;5.984;2023-05-07T10:56:23;18.02;82.35
47861;HTU21D;33620;52.340;5.984;2023-05-07T10:58:37;18.04;82.27
47861;HTU21D;33620;52.340;5.984;2023-05-07T11:01:02;18.08;82.92
47861;HTU21D;33620;52.340;5.984;2023-05-07T11:03:28;18.09;82.22
47861;HTU21D;33620;52.340;5.984;2023-05-07T11:06:13;18.08;81.77
47861;HTU21D;33620;52.340;5.984;2023-05-07T11:08:57;18.09;81.86
47861;HTU21D;33620;52.340;5.984;2023-05-07T11:14:06;18.13;82.87
47861;HTU21D;33620;52.340;5.984;2023-05-07T11:16:32;18.17;83.04
47861;HTU21D;33620;52.340;5.984;2023-05-07T11:18:58;18.21;83.20
47861;HTU21D;33620;52.340;5.984;2023-05-07T11:21:36;18.21;82.70
47861;HTU21D;33620;52.340;5.984;2023-05-07T11:24:03;18.25;83.36
47861;HTU21D;33620;52.340;5.984;2023-05-07T11:26:29;18.26;82.21
47861;HTU21D;33620;52.340;5.984;2023-05-07T11:28:56;18.32;82.52
47861;HTU21D;33620;52.340;5.984;2023-05-07T11:31:23;18.30;81.50
47861;HTU21D;33620;52.340;5.984;2023-05-07T11:33:48;18.35;82.13
47861;HTU21D;33620;52.340;5.984;2023-05-07T11:36:14;18.35;81.37
47861;HTU21D;33620;52.340;5.984;2023-05-07T11:38:39;18.32;80.36
47861;HTU21D;33620;52.340;5.984;2023-05-07T11:41:05;18.32;80.04
47861;HTU21D;33620;52.340;5.984;2023-05-07T11:43:31;18.36;81.33
47861;HTU21D;33620;52.340;5.984;2023-05-07T11:46:04;18.34;80.51
47861;HTU21D;33620;52.340;5.984;2023-05-07T11:48:30;18.34;80.50
47861;HTU21D;33620;52.340;5.984;2023-05-07T11:53:26;18.35;80.88
47861;HTU21D;33620;52.340;5.984;2023-05-07T11:55:52;18.37;80.78
47861;HTU21D;33620;52.340;5.984;2023-05-07T11:58:21;18.41;80.85
47861;HTU21D;33620;52.340;5.984;2023-05-07T12:00:50;18.47;81.04
47861;HTU21D;33620;52.340;5.984;2023-05-07T12:03:16;18.48;80.64
47861;HTU21D;33620;52.340;5.984;2023-05-07T12:05:42;18.52;80.76
47861;HTU21D;33620;52.340;5.984;2023-05-07T12:08:08;18.53;80.07
47861;HTU21D;33620;52.340;5.984;2023-05-07T12:10:33;18.54;80.14
47861;HTU21D;33620;52.340;5.984;2023-05-07T12:12:58;18.55;79.96
47861;HTU21D;33620;52.340;5.984;2023-05-07T12:15:24;18.56;79.72
47861;HTU21D;33620;52.340;5.984;2023-05-07T12:17:49;18.54;79.43
47861;HTU21D;33620;52.340;5.984;2023-05-07T12:20:15;18.57;79.43
47861;HTU21D;33620;52.340;5.984;2023-05-07T12:22:41;18.59;80.05
47861;HTU21D;33620;52.340;5.984;2023-05-07T12:25:07;18.62;79.27
47861;HTU21D;33620;52.340;5.984;2023-05-07T12:27:32;18.65;79.67
47861;HTU21D;33620;52.340;5.984;2023-05-07T12:30:01;18.73;80.40
47861;HTU21D;33620;52.340;5.984;2023-05-07T12:32:26;18.80;80.42
47861;HTU21D;33620;52.340;5.984;2023-05-07T12:34:52;18.88;81.39
47861;HTU21D;33620;52.340;5.984;2023-05-07T12:37:22;18.92;79.53
47861;HTU21D;33620;52.340;5.984;2023-05-07T12:39:48;18.98;78.91
47861;HTU21D;33620;52.340;5.984;2023-05-07T12:42:16;19.02;78.57
47861;HTU21D;33620;52.340;5.984;2023-05-07T12:44:45;19.06;78.37
47861;HTU21D;33620;52.340;5.984;2023-05-07T12:47:10;19.07;77.06
47861;HTU21D;33620;52.340;5.984;2023-05-07T12:49:36;19.07;76.50
47861;HTU21D;33620;52.340;5.984;2023-05-07T12:52:05;19.16;77.18
47861;HTU21D;33620;52.340;5.984;2023-05-07T12:54:31;19.24;75.70
47861;HTU21D;33620;52.340;5.984;2023-05-07T12:57:04;19.27;75.50
47861;HTU21D;33620;52.340;5.984;2023-05-07T12:59:31;19.36;74.77
47861;HTU21D;33620;52.340;5.984;2023-05-07T13:01:56;19.43;74.64
47861;HTU21D;33620;52.340;5.984;2023-05-07T13:04:23;19.51;74.48
47861;HTU21D;33620;52.340;5.984;2023-05-07T13:06:49;19.62;74.52
47861;HTU21D;33620;52.340;5.984;2023-05-07T13:09:14;19.65;74.12
47861;HTU21D;33620;52.340;5.984;2023-05-07T13:11:39;19.69;74.39
47861;HTU21D;33620;52.340;5.984;2023-05-07T13:14:05;19.74;74.69
47861;HTU21D;33620;52.340;5.984;2023-05-07T13:16:30;19.84;75.70
47861;HTU21D;33620;52.340;5.984;2023-05-07T13:18:55;19.89;74.71
47861;HTU21D;33620;52.340;5.984;2023-05-07T13:21:21;19.95;73.75
47861;HTU21D;33620;52.340;5.984;2023-05-07T13:23:46;19.95;73.09
47861;HTU21D;33620;52.340;5.984;2023-05-07T13:26:11;19.95;73.05
47861;HTU21D;33620;52.340;5.984;2023-05-07T13:28:36;19.91;72.74
47861;HTU21D;33620;52.340;5.984;2023-05-07T13:31:02;19.91;73.05
47861;HTU21D;33620;52.340;5.984;2023-05-07T13:33:27;19.91;72.97
47861;HTU21D;33620;52.340;5.984;2023-05-07T13:35:53;19.92;72.54
47861;HTU21D;33620;52.340;5.984;2023-05-07T13:38:18;19.91;73.57
47861;HTU21D;33620;52.340;5.984;2023-05-07T13:40:43;19.92;73.99
47861;HTU21D;33620;52.340;5.984;2023-05-07T13:43:08;19.86;72.61
47861;HTU21D;33620;52.340;5.984;2023-05-07T13:45:34;19.90;72.83
47861;HTU21D;33620;52.340;5.984;2023-05-07T13:47:59;19.96;72.97
47861;HTU21D;33620;52.340;5.984;2023-05-07T13:50:25;20.02;72.26
47861;HTU21D;33620;52.340;5.984;2023-05-07T13:52:52;20.02;72.58
47861;HTU21D;33620;52.340;5.984;2023-05-07T13:55:20;20.00;71.74
47861;HTU21D;33620;52.340;5.984;2023-05-07T13:57:46;19.97;72.04
47861;HTU21D;33620;52.340;5.984;2023-05-07T14:00:12;19.98;71.75
47861;HTU21D;33620;52.340;5.984;2023-05-07T14:02:37;19.98;72.22
47861;HTU21D;33620;52.340;5.984;2023-05-07T14:05:02;19.98;72.00
47861;HTU21D;33620;52.340;5.984;2023-05-07T14:07:28;19.90;71.63
47861;HTU21D;33620;52.340;5.984;2023-05-07T14:09:54;19.87;71.60
47861;HTU21D;33620;52.340;5.984;2023-05-07T14:12:19;19.85;71.55
47861;HTU21D;33620;52.340;5.984;2023-05-07T14:14:44;19.83;71.99
47861;HTU21D;33620;52.340;5.984;2023-05-07T14:17:10;19.85;73.15
47861;HTU21D;33620;52.340;5.984;2023-05-07T14:19:35;19.82;72.99
47861;HTU21D;33620;52.340;5.984;2023-05-07T14:22:01;19.85;73.93
47861;HTU21D;33620;52.340;5.984;2023-05-07T14:24:26;19.79;72.64
47861;HTU21D;33620;52.340;5.984;2023-05-07T14:26:51;19.72;72.41
47861;HTU21D;33620;52.340;5.984;2023-05-07T14:29:17;19.69;73.18
47861;HTU21D;33620;52.340;5.984;2023-05-07T14:31:44;19.70;74.00
47861;HTU21D;33620;52.340;5.984;2023-05-07T14:34:09;19.73;74.22
47861;HTU21D;33620;52.340;5.984;2023-05-07T14:36:35;19.73;73.90
47861;HTU21D;33620;52.340;5.984;2023-05-07T14:39:00;19.71;73.54
47861;HTU21D;33620;52.340;5.984;2023-05-07T14:41:26;19.74;73.98
47861;HTU21D;33620;52.340;5.984;2023-05-07T14:43:51;19.72;72.87
47861;HTU21D;33620;52.340;5.984;2023-05-07T14:46:19;19.72;73.25
47861;HTU21D;33620;52.340;5.984;2023-05-07T14:48:45;19.72;73.65
47861;HTU21D;33620;52.340;5.984;2023-05-07T14:51:11;19.75;74.81
47861;HTU21D;33620;52.340;5.984;2023-05-07T14:53:36;19.75;73.99
47861;HTU21D;33620;52.340;5.984;2023-05-07T14:56:02;19.74;73.02
47861;HTU21D;33620;52.340;5.984;2023-05-07T14:58:28;19.68;72.42
47861;HTU21D;33620;52.340;5.984;2023-05-07T15:00:53;19.68;72.83
47861;HTU21D;33620;52.340;5.984;2023-05-07T15:03:18;19.70;73.29
47861;HTU21D;33620;52.340;5.984;2023-05-07T15:05:44;19.69;73.33
47861;HTU21D;33620;52.340;5.984;2023-05-07T15:08:09;19.70;73.50
47861;HTU21D;33620;52.340;5.984;2023-05-07T15:10:35;19.72;73.66
47861;HTU21D;33620;52.340;5.984;2023-05-07T15:13:05;19.74;73.35
47861;HTU21D;33620;52.340;5.984;2023-05-07T15:15:30;19.75;73.02
47861;HTU21D;33620;52.340;5.984;2023-05-07T15:17:56;19.77;72.87
47861;HTU21D;33620;52.340;5.984;2023-05-07T15:20:21;19.76;72.87
47861;HTU21D;33620;52.340;5.984;2023-05-07T15:22:46;19.70;72.42